aviador You're here:

ZYTL Decoded Metar

DALIAN in CHINA
Report Time2017-04-28 08:00:00
UTC Time2017-04-28 08:12:51
Flight Rules vfr VFR
Wind300° at 10 kt
W.Decomp.*RWY 28: 8.8 kt HW 4.7 kt RCW
W.Rank300° ranks 8
Current wind is above 300° avg. (7.8)
Visibility9999 m
Phenomena:N/A
Clouds:N/A
Expected CloudBase > 10,800 ft AGL from Temp-Dew spread
CeilingNone
Temp23°C (ISA +9)
Dew Point-4°C (16% RH)
AAT16.9°C
QNH1003 hPa
Density Alt1,726 ft
Elevation318 ft
Report Wrong Elevation
Raw Report
ZYTL 280800Z 30005MPS 260V340 CAVOK 23/M04 Q1003 NOSIG=

Extra information for ZYTL:More info

Metar Taf Metar & Taf Last 4 Metars F.Rules Stats Wind Profile Meteogram Temp Stats Airport Information Weather charts Add Link Nearby VenuesMetar ALERT Operation Metar Decoded Social comments